Time;durP1;ratioP1;P1;durP2;ratioP2;P2;SDS_P1;SDS_P2;PMS_P1;PMS_P2;Temp;Humidity;BMP_temperature;BMP_pressure;BME280_temperature;BME280_humidity;BME280_pressure;Samples;Min_cycle;Max_cycle;Signal;HPM_P1;HPM_P2
2022/10/07 00:00:02;;;;;;;5.80;2.90;;;;;;;12.72;84.13;100135.98;104795;1274;76651;-18
2022/10/07 00:02:29;;;;;;;4.60;3.40;;;;;;;13.03;82.37;100136.00;105136;1271;74429;-18
2022/10/07 00:04:57;;;;;;;6.20;3.70;;;;;;;12.97;82.32;100134.70;105054;1274;62100;-18
2022/10/07 00:07:24;;;;;;;6.00;3.90;;;;;;;12.80;82.47;100138.75;104980;1274;61759;-18
2022/10/07 00:09:51;;;;;;;4.20;3.00;;;;;;;12.52;83.87;100137.57;105129;1271;75503;-18
2022/10/07 00:12:18;;;;;;;2.60;2.00;;;;;;;12.29;84.85;100137.33;105123;1274;75938;-17
2022/10/07 00:14:45;;;;;;;3.80;2.30;;;;;;;12.62;84.02;100141.59;105106;1271;73390;-18
2022/10/07 00:17:12;;;;;;;4.30;2.60;;;;;;;13.01;81.92;100137.73;105079;1274;61747;-18
2022/10/07 00:19:39;;;;;;;6.20;2.80;;;;;;;12.93;81.69;100136.17;104817;1271;61974;-18
2022/10/07 00:22:07;;;;;;;3.50;2.70;;;;;;;12.67;82.77;100140.84;104871;1274;75509;-18
2022/10/07 00:24:34;;;;;;;7.20;3.10;;;;;;;12.48;83.39;100139.27;104588;1275;77042;-17
2022/10/07 00:27:01;;;;;;;3.80;1.90;;;;;;;12.24;84.53;100140.79;104669;1274;75416;-18
2022/10/07 00:29:28;;;;;;;4.60;2.30;;;;;;;12.51;83.87;100138.54;104725;1274;63083;-18
2022/10/07 00:31:55;;;;;;;5.10;2.60;;;;;;;12.79;82.38;100144.89;104571;1274;62813;-18
2022/10/07 00:34:23;;;;;;;2.90;2.50;;;;;;;12.67;82.46;100142.48;104711;1273;76278;-18
2022/10/07 00:36:51;;;;;;;5.80;3.20;;;;;;;12.36;83.80;100145.70;104647;1274;76985;-18
2022/10/07 00:39:18;;;;;;;7.00;2.80;;;;;;;12.10;85.02;100147.55;104619;1274;75446;-18
2022/10/07 00:41:51;;;;;;;2.60;1.90;;;;;;;11.88;86.86;100152.66;104694;1271;64490;-18
2022/10/07 00:44:30;;;;;;;4.60;2.50;;;;;;;12.25;85.31;100155.91;104665;1271;62338;-18
2022/10/07 00:47:11;;;;;;;3.20;2.20;;;;;;;12.62;83.20;100152.05;104815;1272;75826;-19
2022/10/07 00:50:06;;;;;;;5.70;2.70;;;;;;;12.54;82.74;100153.63;104716;1271;76830;-18
2022/10/07 00:52:36;;;;;;;5.00;3.00;;;;;;;12.24;83.74;100151.95;104714;1271;74422;-17
2022/10/07 00:55:06;;;;;;;3.40;2.90;;;;;;;11.95;84.78;100153.98;103798;1274;1108579;-18
2022/10/07 00:57:33;;;;;;;4.40;1.90;;;;;;;11.76;85.60;100157.11;104670;1272;63302;-18
2022/10/07 01:00:00;;;;;;;3.90;2.30;;;;;;;12.09;84.96;100161.70;104745;1272;75440;-18
2022/10/07 01:02:27;;;;;;;6.80;2.60;;;;;;;12.43;83.32;100159.11;104758;1272;75704;-18
2022/10/07 01:04:57;;;;;;;3.70;2.50;;;;;;;12.32;83.52;100160.09;104855;1272;75386;-18
2022/10/07 01:07:25;;;;;;;7.20;3.20;;;;;;;12.12;83.72;100160.11;104599;1272;61971;-18
2022/10/07 01:09:52;;;;;;;4.10;2.60;;;;;;;11.83;84.85;100165.88;104690;1272;63014;-18
2022/10/07 01:12:32;;;;;;;2.90;2.10;;;;;;;11.62;85.73;100169.41;104749;1271;77182;-18
2022/10/07 01:15:39;;;;;;;3.70;2.50;;;;;;;11.98;85.01;100167.81;104644;1272;76714;-18
2022/10/07 01:18:32;;;;;;;5.50;3.00;;;;;;;12.35;82.96;100173.27;105161;1271;74167;-18
2022/10/07 01:21:02;;;;;;;4.50;2.90;;;;;;;12.19;83.12;100175.80;104926;1274;63049;-19
2022/10/07 01:23:52;;;;;;;6.60;3.20;;;;;;;11.88;84.57;100176.86;104939;1271;61733;-18
2022/10/07 01:26:56;;;;;;;3.00;2.20;;;;;;;11.66;85.53;100181.16;104791;1272;76612;-18
2022/10/07 01:29:36;;;;;;;5.30;3.40;;;;;;;12.18;83.85;100177.73;105128;1271;76055;-18
2022/10/07 01:32:12;;;;;;;3.80;3.00;;;;;;;12.43;82.05;100183.48;105079;1274;75248;-18
2022/10/07 01:34:39;;;;;;;4.70;3.40;;;;;;;12.31;82.06;100181.96;104829;1272;63336;-18
2022/10/07 01:37:07;;;;;;;3.30;2.80;;;;;;;12.03;82.86;100181.45;104908;1271;62798;-18
2022/10/07 01:39:37;;;;;;;5.10;3.50;;;;;;;11.74;83.04;100185.11;104809;1274;74598;-18
2022/10/07 01:42:05;;;;;;;3.00;1.70;;;;;;;11.52;84.20;100183.67;104639;1274;76191;-19
2022/10/07 01:44:32;;;;;;;3.80;2.70;;;;;;;11.87;84.01;100185.84;104628;1274;74379;-20
2022/10/07 01:46:59;;;;;;;4.10;2.90;;;;;;;12.34;82.41;100185.90;104602;1274;61108;-18
2022/10/07 01:49:26;;;;;;;4.30;2.70;;;;;;;12.35;81.51;100185.98;104798;1272;61652;-17
2022/10/07 01:52:33;;;;;;;4.30;3.30;;;;;;;12.08;81.54;100192.41;104641;1272;75536;-17
2022/10/07 01:55:18;;;;;;;5.70;4.30;;;;;;;11.64;82.58;100194.98;104420;1274;77168;-18
2022/10/07 01:58:00;;;;;;;3.50;2.20;;;;;;;11.33;83.80;100192.84;104750;1274;74538;-17
2022/10/07 02:00:28;;;;;;;7.20;2.10;;;;;;;11.79;83.28;100195.76;104600;1275;62857;-17
2022/10/07 02:03:22;;;;;;;4.70;2.90;;;;;;;12.14;81.76;100200.34;104611;1276;62859;-18
2022/10/07 02:05:55;;;;;;;4.40;3.10;;;;;;;11.95;81.33;100197.96;104613;1272;75538;-17
2022/10/07 02:08:53;;;;;;;4.10;3.00;;;;;;;11.60;82.31;100203.27;104508;1276;76860;-17
2022/10/07 02:11:26;;;;;;;5.20;3.00;;;;;;;11.25;83.92;100205.91;104611;1271;75697;-18
2022/10/07 02:14:17;;;;;;;3.00;2.00;;;;;;;10.99;84.80;100209.55;104619;1271;63876;-17
2022/10/07 02:16:56;;;;;;;4.40;2.40;;;;;;;11.41;84.42;100213.55;104648;1274;63026;-17
2022/10/07 02:19:27;;;;;;;3.50;2.90;;;;;;;11.79;82.22;100219.91;104582;1274;75521;-17
2022/10/07 02:21:56;;;;;;;3.50;2.80;;;;;;;11.73;81.85;100222.77;104741;1274;76231;-17
2022/10/07 02:24:26;;;;;;;6.00;2.50;;;;;;;11.49;81.61;100222.62;104581;1274;75387;-17
2022/10/07 02:26:53;;;;;;;3.00;2.20;;;;;;;11.16;81.85;100226.31;104587;1274;61171;-18
2022/10/07 02:29:21;;;;;;;6.90;2.70;;;;;;;10.82;82.09;100226.25;104488;1274;61973;-17
2022/10/07 02:31:48;;;;;;;1.50;1.40;;;;;;;10.51;83.32;100228.72;104659;1274;75267;-17
2022/10/07 02:34:19;;;;;;;3.20;1.90;;;;;;;10.81;83.91;100230.66;104603;1274;76718;-18
2022/10/07 02:36:51;;;;;;;2.90;2.30;;;;;;;11.24;82.46;100231.20;104592;1275;74453;-17
2022/10/07 02:39:20;;;;;;;3.70;2.60;;;;;;;11.22;81.94;100231.83;104291;1274;62896;-17
2022/10/07 02:42:12;;;;;;;4.10;2.60;;;;;;;11.00;82.10;100232.04;104812;1274;63090;-17
2022/10/07 02:45:12;;;;;;;3.30;2.60;;;;;;;10.68;82.66;100236.65;105011;1274;76351;-18
2022/10/07 02:47:41;;;;;;;3.40;2.60;;;;;;;10.32;83.23;100237.27;104765;1274;76996;-17
2022/10/07 02:50:10;;;;;;;3.50;1.60;;;;;;;10.08;84.21;100239.26;104671;1271;75634;-17
2022/10/07 02:52:39;;;;;;;6.30;2.30;;;;;;;10.47;84.30;100238.81;104643;1274;62776;-17
2022/10/07 02:55:09;;;;;;;12.10;2.60;;;;;;;10.96;83.29;100239.61;104680;1272;63197;-18
2022/10/07 02:57:43;;;;;;;3.30;2.80;;;;;;;10.99;82.63;100242.55;104728;1272;76616;-17
2022/10/07 03:00:11;;;;;;;2.90;2.60;;;;;;;10.75;82.64;100247.83;104748;1272;76862;-17
2022/10/07 03:02:50;;;;;;;3.30;2.60;;;;;;;10.46;83.36;100252.40;104648;1272;75738;-17
2022/10/07 03:05:20;;;;;;;2.40;1.80;;;;;;;10.21;83.98;100253.04;104728;1274;64516;-17
2022/10/07 03:07:50;;;;;;;3.90;2.40;;;;;;;10.52;84.35;100254.69;104769;1271;61995;-18
2022/10/07 03:10:17;;;;;;;4.40;2.90;;;;;;;10.94;83.29;100255.74;104450;1274;76948;-17
2022/10/07 03:12:44;;;;;;;5.10;3.10;;;;;;;10.91;83.36;100260.27;104719;1274;75914;-17
2022/10/07 03:15:12;;;;;;;4.10;3.10;;;;;;;10.68;83.63;100260.46;104593;1274;75127;-17
2022/10/07 03:17:39;;;;;;;5.70;2.70;;;;;;;10.42;84.71;100260.33;104699;1274;62035;-17
2022/10/07 03:20:07;;;;;;;3.90;2.40;;;;;;;10.19;85.33;100266.72;104691;1271;62684;-18
2022/10/07 03:22:34;;;;;;;4.00;2.10;;;;;;;10.49;85.11;100262.48;104764;1274;76374;-17
2022/10/07 03:25:03;;;;;;;6.00;2.40;;;;;;;10.96;83.53;100268.27;104634;1274;76971;-18
2022/10/07 03:27:30;;;;;;;2.80;2.40;;;;;;;10.95;82.53;100266.41;104606;1271;74320;-17
2022/10/07 03:29:58;;;;;;;4.20;2.60;;;;;;;10.67;82.29;100267.11;104750;1274;62012;-19
2022/10/07 03:32:26;;;;;;;4.20;2.70;;;;;;;10.36;83.07;100272.83;104564;1274;62923;-20
2022/10/07 03:34:53;;;;;;;4.90;2.60;;;;;;;10.07;84.21;100272.83;104723;1272;75533;-20
2022/10/07 03:37:21;;;;;;;2.90;1.60;;;;;;;9.83;84.88;100274.02;104874;1271;75966;-17
2022/10/07 03:39:49;;;;;;;4.50;1.60;;;;;;;10.19;84.70;100274.15;104672;1272;75165;-17
2022/10/07 03:42:16;;;;;;;2.60;2.40;;;;;;;10.70;83.53;100272.31;104901;1274;61788;-17
2022/10/07 03:44:44;;;;;;;3.60;2.20;;;;;;;10.72;82.41;100271.65;104785;1271;62036;-17
2022/10/07 03:47:11;;;;;;;2.60;2.10;;;;;;;10.53;82.33;100271.80;104795;1271;76593;-18
2022/10/07 03:49:40;;;;;;;2.70;2.40;;;;;;;10.27;82.50;100273.02;104745;1271;77061;-17
2022/10/07 03:52:08;;;;;;;2.50;2.20;;;;;;;9.97;82.76;100272.48;104728;1271;75693;-17
2022/10/07 03:54:35;;;;;;;2.70;1.30;;;;;;;9.69;82.60;100269.47;104799;1274;63618;-17
2022/10/07 03:57:48;;;;;;;2.30;1.20;;;;;;;9.99;82.87;100273.96;104725;1272;61913;-17
2022/10/07 03:59:52;;;;;;;2.40;1.90;;;;;;;10.45;80.88;100276.13;104758;1272;75520;-17
2022/10/07 04:02:22;;;;;;;2.90;2.60;;;;;;;10.35;80.02;100278.59;104828;1274;77413;-17
2022/10/07 04:04:51;;;;;;;5.00;1.70;;;;;;;10.06;80.49;100279.80;104586;1277;75376;-17
2022/10/07 04:07:20;;;;;;;4.50;2.40;;;;;;;9.72;80.74;100278.81;104806;1274;62805;-17
2022/10/07 04:09:48;;;;;;;6.20;2.00;;;;;;;9.40;81.60;100282.92;104740;1274;62806;-17
2022/10/07 04:12:16;;;;;;;1.60;1.10;;;;;;;9.14;82.80;100282.27;104753;1274;75301;-18
2022/10/07 04:14:43;;;;;;;1.00;0.90;;;;;;;9.50;83.23;100285.11;104716;1274;77304;-17
2022/10/07 04:17:11;;;;;;;3.10;1.50;;;;;;;10.02;81.96;100285.39;104605;1271;73511;-17
2022/10/07 04:19:38;;;;;;;2.80;1.00;;;;;;;10.02;80.72;100282.80;104720;1272;61696;-17
2022/10/07 04:22:05;;;;;;;1.30;1.00;;;;;;;9.77;80.48;100289.30;104797;1271;61776;-17
2022/10/07 04:24:35;;;;;;;1.20;1.00;;;;;;;9.42;80.28;100292.52;104937;1271;76476;-17
2022/10/07 04:27:03;;;;;;;10.20;1.20;;;;;;;9.07;80.62;100297.39;104783;1274;76982;-18
2022/10/07 04:29:31;;;;;;;1.00;0.80;;;;;;;8.81;81.87;100297.59;104740;1274;75419;-17
2022/10/07 04:32:06;;;;;;;1.20;1.00;;;;;;;9.11;81.45;100295.59;104812;1271;61086;-17
2022/10/07 04:34:33;;;;;;;1.20;0.90;;;;;;;9.54;79.48;100296.84;104666;1271;61840;-17
2022/10/07 04:37:00;;;;;;;1.00;0.90;;;;;;;9.45;78.51;100298.92;104723;1271;74493;-18
2022/10/07 04:39:28;;;;;;;1.70;1.00;;;;;;;9.15;79.37;100297.99;104752;1271;76151;-17
2022/10/07 04:45:02;;;;;;;6.70;1.30;;;;;;;8.48;81.33;100303.46;104985;1271;63069;-17
2022/10/07 04:47:31;;;;;;;0.80;0.70;;;;;;;8.23;82.35;100300.76;104664;1271;62884;-17
2022/10/07 04:49:59;;;;;;;1.50;0.90;;;;;;;8.61;83.11;100301.73;104836;1274;76581;-17
2022/10/07 04:52:26;;;;;;;1.70;1.10;;;;;;;9.15;81.49;100300.94;104722;1272;76983;-17
2022/10/07 04:54:54;;;;;;;1.00;0.90;;;;;;;9.21;80.87;100303.70;104745;1274;74374;-17
2022/10/07 04:57:21;;;;;;;1.10;1.00;;;;;;;9.06;80.92;100308.20;104592;1274;62803;-17
2022/10/07 04:59:48;;;;;;;1.10;0.90;;;;;;;8.86;81.77;100304.77;104718;1271;61971;-17
2022/10/07 05:02:18;;;;;;;1.10;1.00;;;;;;;8.61;82.15;100308.84;104840;1271;76254;-17
2022/10/07 05:04:45;;;;;;;0.90;0.70;;;;;;;8.40;83.21;100312.84;104822;1271;75717;-17
2022/10/07 05:07:12;;;;;;;1.10;0.80;;;;;;;8.80;83.24;100315.29;104580;1274;74332;-18
2022/10/07 05:09:40;;;;;;;1.10;1.00;;;;;;;9.38;81.79;100312.85;104705;1274;61692;-17
2022/10/07 05:12:08;;;;;;;1.00;0.90;;;;;;;9.48;81.10;100315.05;104750;1271;61841;-17
2022/10/07 05:14:35;;;;;;;1.20;1.10;;;;;;;9.32;80.96;100319.93;104709;1274;76485;-19
2022/10/07 05:17:03;;;;;;;1.30;1.10;;;;;;;9.09;81.61;100322.91;104733;1271;77021;-20
2022/10/07 05:19:32;;;;;;;1.20;1.10;;;;;;;8.88;82.44;100326.14;104690;1274;75441;-17
2022/10/07 05:22:01;;;;;;;1.00;0.80;;;;;;;8.71;83.27;100327.73;104573;1274;64750;-17
2022/10/07 05:24:29;;;;;;;0.80;0.80;;;;;;;9.16;83.15;100324.80;104739;1274;61115;-17
2022/10/07 05:26:58;;;;;;;1.30;1.20;;;;;;;9.75;81.63;100327.02;104693;1274;76572;-17
2022/10/07 05:29:26;;;;;;;1.20;1.10;;;;;;;9.86;81.13;100324.02;104983;1274;76762;-17
2022/10/07 05:31:53;;;;;;;2.90;1.20;;;;;;;9.72;81.05;100328.79;104747;1272;74622;-17
2022/10/07 05:34:22;;;;;;;1.30;1.20;;;;;;;9.50;81.93;100332.80;105004;1272;61844;-17
2022/10/07 05:36:51;;;;;;;1.80;1.50;;;;;;;9.29;83.36;100337.77;105113;1274;61966;-17
2022/10/07 05:39:18;;;;;;;0.80;0.70;;;;;;;9.18;84.47;100341.67;105130;1271;75497;-17
2022/10/07 05:41:55;;;;;;;1.20;1.00;;;;;;;9.68;84.30;100341.11;104969;1274;76975;-17
2022/10/07 05:44:25;;;;;;;1.50;1.40;;;;;;;10.25;83.01;100348.61;104757;1274;74225;-17
2022/10/07 05:46:54;;;;;;;1.70;1.60;;;;;;;10.29;82.57;100343.52;105058;1271;62022;-17
2022/10/07 05:49:21;;;;;;;1.70;1.60;;;;;;;10.18;83.15;100346.04;104866;1271;62723;-17
2022/10/07 05:51:50;;;;;;;2.00;1.60;;;;;;;10.02;83.47;100345.28;104823;1272;76319;-17
2022/10/07 05:54:17;;;;;;;1.50;1.20;;;;;;;9.88;84.09;100352.66;104654;1271;75822;-17
2022/10/07 05:56:44;;;;;;;1.20;1.00;;;;;;;10.30;84.12;100352.83;104944;1271;74336;-17
2022/10/07 05:59:14;;;;;;;1.60;1.50;;;;;;;10.99;83.03;100354.63;104756;1271;61044;-17
2022/10/07 06:01:42;;;;;;;1.90;1.70;;;;;;;11.21;81.76;100353.63;104642;1271;61793;-17
2022/10/07 06:04:13;;;;;;;2.10;1.70;;;;;;;11.17;81.34;100358.39;104835;1271;75553;-17
2022/10/07 06:06:43;;;;;;;2.10;1.70;;;;;;;11.08;81.52;100360.65;104733;1274;76981;-17
2022/10/07 06:14:47;;;;;;;1.60;1.40;;;;;;;11.78;81.11;100364.04;104777;1271;63055;-17
2022/10/07 06:17:15;;;;;;;4.00;3.30;;;;;;;12.51;79.38;100366.56;104593;1274;74269;-18
2022/10/07 06:19:44;;;;;;;5.10;3.30;;;;;;;12.57;77.75;100365.96;104807;1271;76035;-17
2022/10/07 06:22:12;;;;;;;3.40;3.00;;;;;;;12.39;78.02;100370.13;104834;1271;74343;-17
2022/10/07 06:24:42;;;;;;;3.60;3.20;;;;;;;12.12;78.59;100374.02;105121;1271;61998;-17
2022/10/07 06:27:09;;;;;;;7.10;3.30;;;;;;;11.83;78.68;100371.55;104764;1271;61946;-17
2022/10/07 06:29:37;;;;;;;3.30;3.00;;;;;;;11.61;79.65;100375.05;104849;1271;75270;-17
2022/10/07 06:32:05;;;;;;;2.10;1.70;;;;;;;11.48;80.25;100380.20;105111;1274;77153;-17
2022/10/07 06:34:33;;;;;;;3.40;1.80;;;;;;;12.01;80.66;100381.54;105012;1272;75238;-17
2022/10/07 06:37:00;;;;;;;2.70;2.50;;;;;;;12.56;78.24;100379.27;104750;1271;61681;-18
2022/10/07 06:39:29;;;;;;;3.30;2.60;;;;;;;12.58;77.24;100381.89;104784;1271;61025;-17
2022/10/07 06:41:56;;;;;;;2.60;2.40;;;;;;;12.48;77.47;100385.00;104731;1271;76272;-17
2022/10/07 06:44:30;;;;;;;2.60;2.40;;;;;;;12.30;78.07;100384.28;104698;1271;76759;-17
2022/10/07 06:46:57;;;;;;;3.10;2.40;;;;;;;12.08;79.20;100393.64;104719;1271;75129;-17
2022/10/07 06:49:25;;;;;;;3.50;2.90;;;;;;;11.89;79.54;100391.15;104580;1274;61923;-17
2022/10/07 06:51:53;;;;;;;1.70;1.30;;;;;;;11.79;80.72;100396.52;104694;1274;63111;-17
2022/10/07 06:54:20;;;;;;;1.60;1.50;;;;;;;12.34;80.39;100392.90;104746;1271;75554;-17
2022/10/07 06:56:47;;;;;;;2.60;1.90;;;;;;;13.04;78.65;100399.66;104736;1272;75958;-17
2022/10/07 06:59:14;;;;;;;4.30;2.00;;;;;;;13.26;78.15;100399.35;105018;1271;74448;-17
2022/10/07 07:01:48;;;;;;;3.10;2.10;;;;;;;13.28;77.45;100397.77;104847;1271;63064;-17
2022/10/07 07:04:15;;;;;;;2.60;2.30;;;;;;;13.13;77.58;100398.86;104830;1271;61975;-17
2022/10/07 07:06:43;;;;;;;5.10;2.90;;;;;;;12.96;77.34;100400.76;104811;1271;75466;-17
2022/10/07 07:09:10;;;;;;;2.60;2.30;;;;;;;12.88;79.02;100402.50;104745;1274;75067;-20
2022/10/07 07:11:42;;;;;;;2.50;1.50;;;;;;;12.84;78.90;100402.61;104698;1271;74154;-20
2022/10/07 07:14:20;;;;;;;4.60;1.80;;;;;;;13.43;77.59;100399.56;104696;1274;62726;-17
2022/10/07 07:17:00;;;;;;;3.80;2.10;;;;;;;13.89;74.35;100402.34;104694;1274;63064;-17
2022/10/07 07:19:29;;;;;;;3.60;2.20;;;;;;;14.07;73.89;100398.03;104781;1271;76645;-17
2022/10/07 07:21:56;;;;;;;4.40;2.70;;;;;;;14.04;73.50;100399.64;104774;1274;77137;-17
2022/10/07 07:24:24;;;;;;;6.80;2.70;;;;;;;13.68;73.73;100400.52;104641;1272;75379;-17
2022/10/07 07:26:51;;;;;;;3.40;2.20;;;;;;;13.69;74.16;100400.98;104788;1274;62772;-17
2022/10/07 07:29:19;;;;;;;5.10;2.60;;;;;;;13.60;74.82;100405.84;104851;1271;62303;-17
2022/10/07 07:31:50;;;;;;;25.60;11.80;;;;;;;13.52;75.16;100403.46;104730;1271;76532;-17
2022/10/07 07:34:19;;;;;;;8.10;4.10;;;;;;;13.58;75.32;100400.93;104800;1274;76999;-17
2022/10/07 07:36:48;;;;;;;6.70;3.90;;;;;;;13.56;71.86;100400.06;104617;1274;75188;-17
2022/10/07 07:39:16;;;;;;;12.50;7.00;;;;;;;13.94;69.40;100393.57;104686;1274;61830;-17
2022/10/07 07:41:46;;;;;;;7.80;3.70;;;;;;;14.04;67.38;100393.54;104538;1274;61819;-17
2022/10/07 07:44:16;;;;;;;7.00;3.30;;;;;;;14.24;66.97;100395.55;104839;1271;75612;-17
2022/10/07 07:46:47;;;;;;;26.50;15.10;;;;;;;14.58;67.69;100390.69;104726;1271;76905;-17
2022/10/07 07:49:14;;;;;;;10.80;6.10;;;;;;;14.61;65.06;100392.78;104579;1271;74228;-18
2022/10/07 07:51:42;;;;;;;18.50;14.80;;;;;;;14.60;65.09;100389.89;104743;1274;61048;-17
2022/10/07 07:54:13;;;;;;;7.80;4.80;;;;;;;14.15;64.23;100391.55;104873;1271;63157;-17
2022/10/07 07:56:41;;;;;;;34.50;20.80;;;;;;;14.32;64.92;100390.97;104879;1271;75543;-17
2022/10/07 07:59:09;;;;;;;13.00;7.30;;;;;;;14.14;63.78;100392.67;104920;1271;76070;-18
2022/10/07 08:01:37;;;;;;;10.20;4.70;;;;;;;14.08;64.57;100391.73;104856;1271;74482;-17
2022/10/07 08:04:05;;;;;;;14.90;8.20;;;;;;;14.34;64.67;100391.46;104932;1271;63093;-18
2022/10/07 08:06:33;;;;;;;21.30;11.80;;;;;;;13.95;61.10;100386.93;104865;1271;63017;-17
2022/10/07 08:09:02;;;;;;;7.30;3.20;;;;;;;14.15;63.04;100386.63;104802;1272;76583;-17
2022/10/07 08:11:31;;;;;;;4.00;2.40;;;;;;;14.41;61.26;100385.94;104810;1272;76986;-18
2022/10/07 08:13:59;;;;;;;11.10;2.10;;;;;;;14.51;62.17;100383.73;104813;1271;75175;-18
2022/10/07 08:16:27;;;;;;;4.20;1.50;;;;;;;14.56;60.62;100382.36;104738;1271;62027;-17
2022/10/07 08:18:56;;;;;;;5.60;2.00;;;;;;;14.71;60.81;100382.94;104589;1274;61875;-17
2022/10/07 08:21:25;;;;;;;14.20;7.30;;;;;;;14.74;59.99;100382.91;104759;1271;76660;-17
2022/10/07 08:23:56;;;;;;;7.10;2.30;;;;;;;14.70;58.88;100381.23;104652;1271;76964;-18
2022/10/07 08:26:28;;;;;;;4.20;1.80;;;;;;;14.88;59.37;100377.28;104701;1274;75267;-17
2022/10/07 08:28:56;;;;;;;5.00;1.80;;;;;;;15.15;58.30;100372.70;104941;1271;62011;-18
2022/10/07 08:31:27;;;;;;;20.50;8.90;;;;;;;15.46;58.42;100374.44;104786;1271;62205;-18
2022/10/07 08:33:56;;;;;;;36.70;17.60;;;;;;;15.39;59.71;100376.20;104838;1271;76654;-18
2022/10/07 08:36:24;;;;;;;5.40;2.40;;;;;;;15.33;57.01;100371.77;105036;1271;75906;-17
2022/10/07 08:38:51;;;;;;;7.80;2.20;;;;;;;15.64;57.36;100373.67;104789;1271;75107;-17
2022/10/07 08:41:51;;;;;;;15.30;6.70;;;;;;;15.98;57.00;100373.19;104721;1271;63232;-18
2022/10/07 08:44:28;;;;;;;25.10;11.10;;;;;;;16.05;56.30;100373.70;104863;1274;61953;-17
2022/10/07 08:47:23;;;;;;;11.70;4.30;;;;;;;16.30;54.96;100373.91;104769;1271;76271;-18
2022/10/07 08:50:03;;;;;;;12.70;4.90;;;;;;;16.02;53.91;100370.26;104747;1274;76984;-18
2022/10/07 08:52:36;;;;;;;12.80;5.40;;;;;;;16.11;53.40;100369.16;104855;1274;74388;-18
2022/10/07 08:55:25;;;;;;;16.30;6.00;;;;;;;16.64;53.43;100369.24;104886;1274;61128;-18
2022/10/07 08:58:14;;;;;;;4.10;1.10;;;;;;;16.95;50.63;100365.55;104941;1274;63029;-17
2022/10/07 09:00:47;;;;;;;7.50;3.60;;;;;;;16.87;49.69;100364.73;104792;1271;76476;-18
2022/10/07 09:03:25;;;;;;;17.50;7.80;;;;;;;17.49;50.78;100365.95;104646;1271;76734;-18
2022/10/07 09:05:54;;;;;;;5.70;2.60;;;;;;;17.88;50.53;100358.58;104761;1271;74081;-18
2022/10/07 09:08:34;;;;;;;4.20;1.30;;;;;;;18.38;49.61;100357.49;104754;1271;61783;-18
2022/10/07 09:11:14;;;;;;;18.80;9.90;;;;;;;18.41;47.57;100357.92;104728;1271;62857;-18
2022/10/07 09:13:45;;;;;;;5.50;1.50;;;;;;;18.65;48.36;100356.59;104974;1271;76535;-18
2022/10/07 09:16:20;;;;;;;4.50;2.10;;;;;;;18.70;46.37;100358.62;104973;1270;76904;-18
2022/10/07 09:18:49;;;;;;;8.90;6.40;;;;;;;18.03;45.65;100355.64;104872;1271;74270;-18
2022/10/07 09:21:21;;;;;;;6.00;1.40;;;;;;;18.10;46.08;100352.00;104686;1272;63132;-18
2022/10/07 09:23:55;;;;;;;4.50;1.30;;;;;;;18.64;45.40;100353.18;104795;1274;62956;-18
2022/10/07 09:26:23;;;;;;;7.40;1.20;;;;;;;19.10;44.99;100354.61;104874;1274;75316;-17
2022/10/07 09:28:51;;;;;;;14.20;1.10;;;;;;;18.61;43.27;100351.82;104680;1271;77022;-18
2022/10/07 09:31:18;;;;;;;9.50;5.40;;;;;;;19.02;44.02;100351.20;104703;1274;75414;-18
2022/10/07 09:33:48;;;;;;;5.00;2.00;;;;;;;18.86;43.83;100352.20;104618;1272;62105;-18
2022/10/07 09:36:18;;;;;;;2.10;1.30;;;;;;;19.42;43.75;100350.86;104603;1274;64069;-18
2022/10/07 09:38:48;;;;;;;4.10;1.30;;;;;;;19.54;42.77;100351.45;104647;1273;75390;-18
2022/10/07 09:41:34;;;;;;;6.00;3.00;;;;;;;19.49;42.11;100348.55;104542;1274;76031;-18
2022/10/07 09:44:06;;;;;;;8.20;2.60;;;;;;;19.54;40.97;100346.17;104634;1271;73738;-17
2022/10/07 09:46:53;;;;;;;4.90;1.40;;;;;;;19.76;41.93;100339.30;104582;1271;61439;-18
2022/10/07 09:49:24;;;;;;;3.20;1.10;;;;;;;19.73;41.62;100339.02;104824;1271;61007;-18
2022/10/07 09:52:23;;;;;;;1.90;0.60;;;;;;;19.84;39.53;100334.23;104846;1271;75724;-18
2022/10/07 09:54:55;;;;;;;1.70;0.80;;;;;;;19.94;39.24;100332.89;105087;1271;75966;-18
2022/10/07 09:57:33;;;;;;;10.00;4.90;;;;;;;20.26;39.31;100327.75;104632;1272;73885;-18
2022/10/07 10:00:12;;;;;;;3.00;1.20;;;;;;;20.36;38.01;100329.14;105050;1271;62775;-18
2022/10/07 10:02:40;;;;;;;2.40;1.00;;;;;;;20.42;36.26;100325.60;105099;1271;62084;-18
2022/10/07 10:05:22;;;;;;;5.70;1.10;;;;;;;20.32;37.56;100323.77;105136;1271;76408;-18
2022/10/07 10:08:05;;;;;;;2.40;1.10;;;;;;;20.18;38.65;100325.20;105028;1271;75017;-18
2022/10/07 10:10:33;;;;;;;2.00;0.70;;;;;;;20.21;37.92;100320.81;104683;1271;75452;-18
2022/10/07 10:13:02;;;;;;;7.40;0.70;;;;;;;20.28;37.51;100317.48;104634;1271;61779;-18
2022/10/07 10:15:35;;;;;;;2.30;0.90;;;;;;;20.34;37.92;100308.08;104934;1271;62746;-18
2022/10/07 10:18:22;;;;;;;10.30;3.80;;;;;;;20.37;39.44;100307.54;105096;1271;76535;-18
2022/10/07 10:20:49;;;;;;;4.90;2.60;;;;;;;20.72;37.86;100301.65;104845;1271;76920;-18
2022/10/07 10:23:23;;;;;;;4.50;1.00;;;;;;;20.97;38.74;100302.42;104966;1271;75414;-18
2022/10/07 10:29:01;;;;;;;2.10;0.90;;;;;;;20.74;38.74;100297.45;104987;1271;61816;-18
2022/10/07 10:31:59;;;;;;;5.10;1.10;;;;;;;20.32;40.45;100296.41;104982;1271;76546;-18
2022/10/07 10:34:54;;;;;;;4.80;0.90;;;;;;;20.29;38.38;100295.98;105054;1271;76878;-18
2022/10/07 10:37:39;;;;;;;1.80;0.90;;;;;;;20.71;39.52;100291.89;104926;1274;74022;-18
2022/10/07 10:40:54;;;;;;;3.60;0.70;;;;;;;20.35;38.13;100279.37;104603;1271;63717;-18
2022/10/07 10:43:24;;;;;;;4.20;1.20;;;;;;;20.23;38.63;100281.66;104498;1280;61707;-18
2022/10/07 10:46:38;;;;;;;5.40;1.10;;;;;;;20.10;39.63;100279.52;104880;1274;75604;-18
2022/10/07 10:49:09;;;;;;;13.70;3.40;;;;;;;19.73;38.57;100274.03;104480;1272;76842;-18
2022/10/07 10:52:24;;;;;;;5.40;1.20;;;;;;;20.53;39.46;100275.61;104798;1271;75184;-18
2022/10/07 10:55:11;;;;;;;3.60;1.20;;;;;;;20.49;38.11;100273.15;104404;1280;61992;-18
2022/10/07 10:58:00;;;;;;;3.10;0.80;;;;;;;20.59;38.46;100271.83;104435;1278;62128;-18
2022/10/07 11:00:54;;;;;;;3.90;0.80;;;;;;;20.51;36.62;100269.42;104390;1280;76611;-18
2022/10/07 11:03:46;;;;;;;2.30;0.70;;;;;;;20.81;37.56;100264.92;104357;1278;77350;-18
2022/10/07 11:06:15;;;;;;;6.70;2.10;;;;;;;20.37;36.64;100263.27;104495;1280;75580;-18
2022/10/07 11:08:42;;;;;;;3.60;1.30;;;;;;;20.79;37.74;100253.14;104349;1279;63399;-17
2022/10/07 11:11:13;;;;;;;3.40;1.20;;;;;;;20.98;37.01;100246.44;104392;1280;61888;-18
2022/10/07 11:13:53;;;;;;;6.70;1.00;;;;;;;20.63;37.14;100248.80;104451;1280;75928;-18
2022/10/07 11:16:38;;;;;;;3.70;1.20;;;;;;;20.45;37.60;100247.06;104496;1277;76050;-18
2022/10/07 11:19:10;;;;;;;7.80;3.60;;;;;;;20.09;38.82;100249.08;104505;1280;75097;-17
2022/10/07 11:21:40;;;;;;;4.20;1.60;;;;;;;20.70;37.93;100243.31;104526;1278;63172;-17
2022/10/07 11:24:38;;;;;;;4.50;1.10;;;;;;;20.83;38.04;100241.61;104470;1280;62851;-18
2022/10/07 11:27:21;;;;;;;4.40;0.90;;;;;;;20.43;38.42;100238.21;104222;1280;75256;-18
2022/10/07 11:30:10;;;;;;;2.90;0.90;;;;;;;20.01;39.42;100236.18;104680;1274;77127;-18
2022/10/07 11:32:56;;;;;;;3.20;1.00;;;;;;;20.55;38.73;100226.90;105032;1271;75408;-17
2022/10/07 11:35:34;;;;;;;3.90;1.00;;;;;;;20.68;39.90;100225.35;104777;1271;62020;-18
2022/10/07 11:38:13;;;;;;;3.70;1.20;;;;;;;20.66;39.80;100220.46;104817;1274;62820;-18
2022/10/07 11:41:02;;;;;;;5.10;1.10;;;;;;;20.24;39.66;100220.80;104820;1271;76555;-18
2022/10/07 11:43:37;;;;;;;2.80;1.00;;;;;;;20.23;39.99;100218.79;104836;1272;75986;-18
2022/10/07 11:46:14;;;;;;;3.10;1.00;;;;;;;20.22;39.26;100217.65;104814;1271;75398;-18
2022/10/07 11:48:52;;;;;;;6.10;1.30;;;;;;;20.14;40.45;100215.23;104895;1271;62155;-18
2022/10/07 11:51:33;;;;;;;2.30;1.10;;;;;;;19.79;41.82;100213.37;104906;1271;63315;-18
2022/10/07 11:54:01;;;;;;;2.20;0.90;;;;;;;19.43;41.91;100207.58;105022;1271;76576;-18